sensor_id;sensor_type;location;lat;lon;timestamp;temperature;humidity
28171;DHT22;15458;53.346;-1.688;2022-09-03T00:01:19;17.70;99.90
28171;DHT22;15458;53.346;-1.688;2022-09-03T00:03:51;17.70;99.90
28171;DHT22;15458;53.346;-1.688;2022-09-03T00:06:25;17.70;99.90
28171;DHT22;15458;53.346;-1.688;2022-09-03T00:09:13;17.70;99.90
28171;DHT22;15458;53.346;-1.688;2022-09-03T00:14:38;17.70;99.90
28171;DHT22;15458;53.346;-1.688;2022-09-03T00:17:13;17.70;99.90
28171;DHT22;15458;53.346;-1.688;2022-09-03T00:19:45;17.70;99.90
28171;DHT22;15458;53.346;-1.688;2022-09-03T00:22:20;17.80;99.90
28171;DHT22;15458;53.346;-1.688;2022-09-03T00:24:48;17.70;99.90
28171;DHT22;15458;53.346;-1.688;2022-09-03T00:27:23;17.70;99.90
28171;DHT22;15458;53.346;-1.688;2022-09-03T00:29:58;17.70;99.90
28171;DHT22;15458;53.346;-1.688;2022-09-03T00:32:41;17.70;99.90
28171;DHT22;15458;53.346;-1.688;2022-09-03T00:35:26;17.70;99.90
28171;DHT22;15458;53.346;-1.688;2022-09-03T00:37:54;17.70;99.90
28171;DHT22;15458;53.346;-1.688;2022-09-03T01:00:30;17.70;99.90
28171;DHT22;15458;53.346;-1.688;2022-09-03T01:03:04;17.70;99.90
28171;DHT22;15458;53.346;-1.688;2022-09-03T01:08:19;17.70;99.90
28171;DHT22;15458;53.346;-1.688;2022-09-03T01:13:37;17.70;99.90
28171;DHT22;15458;53.346;-1.688;2022-09-03T01:16:27;17.60;99.90
28171;DHT22;15458;53.346;-1.688;2022-09-03T01:19:37;17.60;99.90
28171;DHT22;15458;53.346;-1.688;2022-09-03T01:30:43;17.50;99.90
28171;DHT22;15458;53.346;-1.688;2022-09-03T01:33:39;17.50;99.90
28171;DHT22;15458;53.346;-1.688;2022-09-03T01:38:54;17.50;99.90
28171;DHT22;15458;53.346;-1.688;2022-09-03T02:00:24;17.40;99.90
28171;DHT22;15458;53.346;-1.688;2022-09-03T02:02:51;17.30;99.90
28171;DHT22;15458;53.346;-1.688;2022-09-03T02:05:26;17.30;99.90
28171;DHT22;15458;53.346;-1.688;2022-09-03T02:08:00;17.30;99.90
28171;DHT22;15458;53.346;-1.688;2022-09-03T02:10:46;17.30;99.90
28171;DHT22;15458;53.346;-1.688;2022-09-03T02:13:19;17.20;99.90
28171;DHT22;15458;53.346;-1.688;2022-09-03T02:15:47;17.30;99.90
28171;DHT22;15458;53.346;-1.688;2022-09-03T02:18:27;17.20;99.90
28171;DHT22;15458;53.346;-1.688;2022-09-03T02:20:54;17.30;99.90
28171;DHT22;15458;53.346;-1.688;2022-09-03T02:23:22;17.30;99.90
28171;DHT22;15458;53.346;-1.688;2022-09-03T02:25:51;17.30;99.90
28171;DHT22;15458;53.346;-1.688;2022-09-03T02:28:19;17.20;99.90
28171;DHT22;15458;53.346;-1.688;2022-09-03T02:30:45;17.20;99.90
28171;DHT22;15458;53.346;-1.688;2022-09-03T02:33:12;17.10;99.90
28171;DHT22;15458;53.346;-1.688;2022-09-03T02:35:39;17.10;99.90
28171;DHT22;15458;53.346;-1.688;2022-09-03T02:38:15;17.00;99.90
28171;DHT22;15458;53.346;-1.688;2022-09-03T02:40:41;16.90;99.90
28171;DHT22;15458;53.346;-1.688;2022-09-03T02:43:12;16.90;99.90
28171;DHT22;15458;53.346;-1.688;2022-09-03T02:45:47;16.90;99.90
28171;DHT22;15458;53.346;-1.688;2022-09-03T02:48:16;16.90;99.90
28171;DHT22;15458;53.346;-1.688;2022-09-03T02:50:43;16.90;99.90
28171;DHT22;15458;53.346;-1.688;2022-09-03T02:53:09;16.90;99.90
28171;DHT22;15458;53.346;-1.688;2022-09-03T02:55:35;17.00;99.90
28171;DHT22;15458;53.346;-1.688;2022-09-03T02:58:07;16.90;99.90
28171;DHT22;15458;53.346;-1.688;2022-09-03T03:00:36;16.90;99.90
28171;DHT22;15458;53.346;-1.688;2022-09-03T03:03:03;16.90;99.90
28171;DHT22;15458;53.346;-1.688;2022-09-03T03:05:44;17.00;99.90
28171;DHT22;15458;53.346;-1.688;2022-09-03T03:08:11;17.00;99.90
28171;DHT22;15458;53.346;-1.688;2022-09-03T03:10:40;17.10;99.90
28171;DHT22;15458;53.346;-1.688;2022-09-03T03:13:05;17.10;99.90
28171;DHT22;15458;53.346;-1.688;2022-09-03T03:15:31;17.10;99.90
28171;DHT22;15458;53.346;-1.688;2022-09-03T03:17:57;17.10;99.90
28171;DHT22;15458;53.346;-1.688;2022-09-03T03:20:24;17.10;99.90
28171;DHT22;15458;53.346;-1.688;2022-09-03T03:22:50;17.10;99.90
28171;DHT22;15458;53.346;-1.688;2022-09-03T03:25:15;17.10;99.90
28171;DHT22;15458;53.346;-1.688;2022-09-03T03:27:41;17.10;99.90
28171;DHT22;15458;53.346;-1.688;2022-09-03T03:30:09;17.10;99.90
28171;DHT22;15458;53.346;-1.688;2022-09-03T03:32:35;17.10;99.90
28171;DHT22;15458;53.346;-1.688;2022-09-03T03:35:02;17.10;99.90
28171;DHT22;15458;53.346;-1.688;2022-09-03T03:37:27;17.10;99.90
28171;DHT22;15458;53.346;-1.688;2022-09-03T03:39:53;17.10;99.90
28171;DHT22;15458;53.346;-1.688;2022-09-03T03:42:19;17.10;99.90
28171;DHT22;15458;53.346;-1.688;2022-09-03T03:44:44;17.00;99.90
28171;DHT22;15458;53.346;-1.688;2022-09-03T03:47:10;17.00;99.90
28171;DHT22;15458;53.346;-1.688;2022-09-03T03:49:36;17.00;99.90
28171;DHT22;15458;53.346;-1.688;2022-09-03T03:52:02;17.00;99.90
28171;DHT22;15458;53.346;-1.688;2022-09-03T03:54:29;17.00;99.90
28171;DHT22;15458;53.346;-1.688;2022-09-03T03:56:55;17.00;99.90
28171;DHT22;15458;53.346;-1.688;2022-09-03T03:59:21;17.00;99.90
28171;DHT22;15458;53.346;-1.688;2022-09-03T04:01:47;17.00;99.90
28171;DHT22;15458;53.346;-1.688;2022-09-03T04:04:15;17.00;99.90
28171;DHT22;15458;53.346;-1.688;2022-09-03T04:06:41;16.90;99.90
28171;DHT22;15458;53.346;-1.688;2022-09-03T04:09:06;16.90;99.90
28171;DHT22;15458;53.346;-1.688;2022-09-03T04:11:32;16.80;99.90
28171;DHT22;15458;53.346;-1.688;2022-09-03T04:13:58;16.80;99.90
28171;DHT22;15458;53.346;-1.688;2022-09-03T04:16:25;16.80;99.90
28171;DHT22;15458;53.346;-1.688;2022-09-03T04:18:55;16.80;99.90
28171;DHT22;15458;53.346;-1.688;2022-09-03T04:21:26;16.80;99.90
28171;DHT22;15458;53.346;-1.688;2022-09-03T04:23:52;16.80;99.90
28171;DHT22;15458;53.346;-1.688;2022-09-03T04:26:24;16.80;99.90
28171;DHT22;15458;53.346;-1.688;2022-09-03T04:28:50;16.80;99.90
28171;DHT22;15458;53.346;-1.688;2022-09-03T04:31:18;16.80;99.90
28171;DHT22;15458;53.346;-1.688;2022-09-03T04:33:44;16.80;99.90
28171;DHT22;15458;53.346;-1.688;2022-09-03T04:36:15;16.80;99.90
28171;DHT22;15458;53.346;-1.688;2022-09-03T04:38:46;16.80;99.90
28171;DHT22;15458;53.346;-1.688;2022-09-03T04:41:14;16.80;99.90
28171;DHT22;15458;53.346;-1.688;2022-09-03T04:43:40;16.80;99.90
28171;DHT22;15458;53.346;-1.688;2022-09-03T04:46:08;16.80;99.90
28171;DHT22;15458;53.346;-1.688;2022-09-03T04:48:35;16.80;99.90
28171;DHT22;15458;53.346;-1.688;2022-09-03T04:51:07;16.80;99.90
28171;DHT22;15458;53.346;-1.688;2022-09-03T04:53:34;16.80;99.90
28171;DHT22;15458;53.346;-1.688;2022-09-03T04:56:01;16.70;99.90
28171;DHT22;15458;53.346;-1.688;2022-09-03T04:58:27;16.70;99.90
28171;DHT22;15458;53.346;-1.688;2022-09-03T05:00:53;16.70;99.90
28171;DHT22;15458;53.346;-1.688;2022-09-03T05:03:19;16.70;99.90
28171;DHT22;15458;53.346;-1.688;2022-09-03T05:05:55;16.60;99.90
28171;DHT22;15458;53.346;-1.688;2022-09-03T05:08:22;16.60;99.90
28171;DHT22;15458;53.346;-1.688;2022-09-03T05:10:48;16.50;99.90
28171;DHT22;15458;53.346;-1.688;2022-09-03T05:13:14;16.50;99.90
28171;DHT22;15458;53.346;-1.688;2022-09-03T05:15:39;16.50;99.90
28171;DHT22;15458;53.346;-1.688;2022-09-03T05:18:09;16.50;99.90
28171;DHT22;15458;53.346;-1.688;2022-09-03T05:20:35;16.50;99.90
28171;DHT22;15458;53.346;-1.688;2022-09-03T05:23:02;16.50;99.90
28171;DHT22;15458;53.346;-1.688;2022-09-03T05:25:28;16.50;99.90
28171;DHT22;15458;53.346;-1.688;2022-09-03T05:27:57;16.40;99.90
28171;DHT22;15458;53.346;-1.688;2022-09-03T05:30:22;16.40;99.90
28171;DHT22;15458;53.346;-1.688;2022-09-03T05:32:49;16.30;99.90
28171;DHT22;15458;53.346;-1.688;2022-09-03T05:35:15;16.30;99.90
28171;DHT22;15458;53.346;-1.688;2022-09-03T05:37:40;16.30;99.90
28171;DHT22;15458;53.346;-1.688;2022-09-03T05:40:07;16.30;99.90
28171;DHT22;15458;53.346;-1.688;2022-09-03T05:42:35;16.30;99.90
28171;DHT22;15458;53.346;-1.688;2022-09-03T05:45:07;16.20;99.90
28171;DHT22;15458;53.346;-1.688;2022-09-03T05:47:36;16.20;99.90
28171;DHT22;15458;53.346;-1.688;2022-09-03T05:50:02;16.20;99.90
28171;DHT22;15458;53.346;-1.688;2022-09-03T05:52:28;16.20;99.90
28171;DHT22;15458;53.346;-1.688;2022-09-03T05:54:53;16.20;99.90
28171;DHT22;15458;53.346;-1.688;2022-09-03T05:57:19;16.20;99.90
28171;DHT22;15458;53.346;-1.688;2022-09-03T05:59:44;16.20;99.90
28171;DHT22;15458;53.346;-1.688;2022-09-03T06:02:10;16.10;99.90
28171;DHT22;15458;53.346;-1.688;2022-09-03T06:04:36;16.10;99.90
28171;DHT22;15458;53.346;-1.688;2022-09-03T06:07:01;16.10;99.90
28171;DHT22;15458;53.346;-1.688;2022-09-03T06:09:28;16.10;99.90
28171;DHT22;15458;53.346;-1.688;2022-09-03T06:11:54;16.10;99.90
28171;DHT22;15458;53.346;-1.688;2022-09-03T06:14:22;16.10;99.90
28171;DHT22;15458;53.346;-1.688;2022-09-03T06:16:48;16.10;99.90
28171;DHT22;15458;53.346;-1.688;2022-09-03T06:19:16;16.10;99.90
28171;DHT22;15458;53.346;-1.688;2022-09-03T06:21:43;16.10;99.90
28171;DHT22;15458;53.346;-1.688;2022-09-03T06:24:16;16.20;99.90
28171;DHT22;15458;53.346;-1.688;2022-09-03T06:26:42;16.20;99.90
28171;DHT22;15458;53.346;-1.688;2022-09-03T06:29:07;16.20;99.90
28171;DHT22;15458;53.346;-1.688;2022-09-03T06:31:33;16.30;99.90
28171;DHT22;15458;53.346;-1.688;2022-09-03T06:34:00;16.30;99.90
28171;DHT22;15458;53.346;-1.688;2022-09-03T06:36:26;16.30;99.90
28171;DHT22;15458;53.346;-1.688;2022-09-03T06:38:53;16.40;99.90
28171;DHT22;15458;53.346;-1.688;2022-09-03T06:41:22;16.40;99.90
28171;DHT22;15458;53.346;-1.688;2022-09-03T06:43:56;16.50;99.90
28171;DHT22;15458;53.346;-1.688;2022-09-03T06:46:27;16.50;99.90
28171;DHT22;15458;53.346;-1.688;2022-09-03T06:48:53;16.60;99.90
28171;DHT22;15458;53.346;-1.688;2022-09-03T06:51:24;16.60;99.90
28171;DHT22;15458;53.346;-1.688;2022-09-03T06:53:51;16.70;99.90
28171;DHT22;15458;53.346;-1.688;2022-09-03T06:56:20;16.70;99.90
28171;DHT22;15458;53.346;-1.688;2022-09-03T06:58:57;16.80;99.90
28171;DHT22;15458;53.346;-1.688;2022-09-03T07:01:27;16.80;99.90
28171;DHT22;15458;53.346;-1.688;2022-09-03T07:03:56;16.90;99.90
28171;DHT22;15458;53.346;-1.688;2022-09-03T07:06:27;16.90;99.90
28171;DHT22;15458;53.346;-1.688;2022-09-03T07:08:54;17.00;99.90
28171;DHT22;15458;53.346;-1.688;2022-09-03T07:11:24;17.00;99.90
28171;DHT22;15458;53.346;-1.688;2022-09-03T07:13:51;17.10;99.90
28171;DHT22;15458;53.346;-1.688;2022-09-03T07:16:20;17.10;99.90
28171;DHT22;15458;53.346;-1.688;2022-09-03T07:18:47;17.10;99.90
28171;DHT22;15458;53.346;-1.688;2022-09-03T07:21:20;17.10;99.90
28171;DHT22;15458;53.346;-1.688;2022-09-03T07:23:47;17.20;99.90
28171;DHT22;15458;53.346;-1.688;2022-09-03T07:26:18;17.20;99.90
28171;DHT22;15458;53.346;-1.688;2022-09-03T07:28:44;17.30;99.90
28171;DHT22;15458;53.346;-1.688;2022-09-03T07:31:15;17.30;99.90
28171;DHT22;15458;53.346;-1.688;2022-09-03T07:33:43;17.40;99.90
28171;DHT22;15458;53.346;-1.688;2022-09-03T07:36:12;17.40;99.90
28171;DHT22;15458;53.346;-1.688;2022-09-03T07:38:39;17.50;99.90
28171;DHT22;15458;53.346;-1.688;2022-09-03T07:41:07;17.60;99.90
28171;DHT22;15458;53.346;-1.688;2022-09-03T07:43:36;17.70;99.90
28171;DHT22;15458;53.346;-1.688;2022-09-03T07:46:07;17.80;99.90
28171;DHT22;15458;53.346;-1.688;2022-09-03T07:48:34;17.80;99.90
28171;DHT22;15458;53.346;-1.688;2022-09-03T07:51:00;17.90;99.90
28171;DHT22;15458;53.346;-1.688;2022-09-03T07:53:28;17.90;99.90
28171;DHT22;15458;53.346;-1.688;2022-09-03T07:56:00;18.00;99.90
28171;DHT22;15458;53.346;-1.688;2022-09-03T07:58:28;18.00;99.90
28171;DHT22;15458;53.346;-1.688;2022-09-03T08:00:54;18.10;99.90
28171;DHT22;15458;53.346;-1.688;2022-09-03T08:03:21;18.20;99.90
28171;DHT22;15458;53.346;-1.688;2022-09-03T08:05:47;18.20;99.90
28171;DHT22;15458;53.346;-1.688;2022-09-03T08:08:13;18.20;99.90
28171;DHT22;15458;53.346;-1.688;2022-09-03T08:10:40;18.30;99.90
28171;DHT22;15458;53.346;-1.688;2022-09-03T08:13:06;18.40;99.90
28171;DHT22;15458;53.346;-1.688;2022-09-03T08:15:32;18.50;99.90
28171;DHT22;15458;53.346;-1.688;2022-09-03T08:17:59;18.50;99.90
28171;DHT22;15458;53.346;-1.688;2022-09-03T08:20:26;18.60;99.90
28171;DHT22;15458;53.346;-1.688;2022-09-03T08:22:52;18.60;99.90
28171;DHT22;15458;53.346;-1.688;2022-09-03T08:25:18;18.60;99.90
28171;DHT22;15458;53.346;-1.688;2022-09-03T08:27:43;18.70;99.90
28171;DHT22;15458;53.346;-1.688;2022-09-03T08:30:15;18.70;99.90
28171;DHT22;15458;53.346;-1.688;2022-09-03T08:32:42;18.80;99.90
28171;DHT22;15458;53.346;-1.688;2022-09-03T08:35:07;18.90;99.90
28171;DHT22;15458;53.346;-1.688;2022-09-03T08:37:34;19.00;99.90
28171;DHT22;15458;53.346;-1.688;2022-09-03T08:40:00;19.00;99.90
28171;DHT22;15458;53.346;-1.688;2022-09-03T08:42:43;19.20;99.90
28171;DHT22;15458;53.346;-1.688;2022-09-03T08:45:16;19.30;99.90
28171;DHT22;15458;53.346;-1.688;2022-09-03T08:48:03;19.30;99.90
28171;DHT22;15458;53.346;-1.688;2022-09-03T08:50:42;19.40;99.90
28171;DHT22;15458;53.346;-1.688;2022-09-03T08:53:19;19.50;99.90
28171;DHT22;15458;53.346;-1.688;2022-09-03T08:55:52;19.50;99.90
28171;DHT22;15458;53.346;-1.688;2022-09-03T08:58:26;19.60;99.90
28171;DHT22;15458;53.346;-1.688;2022-09-03T09:01:22;19.60;99.90
28171;DHT22;15458;53.346;-1.688;2022-09-03T09:18:32;19.40;99.90
28171;DHT22;15458;53.346;-1.688;2022-09-03T09:21:14;19.50;99.90
28171;DHT22;15458;53.346;-1.688;2022-09-03T09:23:46;19.50;99.90
28171;DHT22;15458;53.346;-1.688;2022-09-03T09:26:15;19.60;99.90
28171;DHT22;15458;53.346;-1.688;2022-09-03T09:28:44;19.70;99.90
28171;DHT22;15458;53.346;-1.688;2022-09-03T09:31:13;19.80;99.90
28171;DHT22;15458;53.346;-1.688;2022-09-03T09:33:40;19.80;99.90
28171;DHT22;15458;53.346;-1.688;2022-09-03T09:36:14;19.80;99.90
28171;DHT22;15458;53.346;-1.688;2022-09-03T09:38:49;19.80;99.90
28171;DHT22;15458;53.346;-1.688;2022-09-03T09:41:19;19.80;99.90
28171;DHT22;15458;53.346;-1.688;2022-09-03T09:43:59;19.80;99.90
28171;DHT22;15458;53.346;-1.688;2022-09-03T09:46:37;19.90;99.90
28171;DHT22;15458;53.346;-1.688;2022-09-03T09:49:31;19.90;99.90
28171;DHT22;15458;53.346;-1.688;2022-09-03T09:52:06;20.00;99.90
28171;DHT22;15458;53.346;-1.688;2022-09-03T09:54:34;20.10;99.90
28171;DHT22;15458;53.346;-1.688;2022-09-03T09:57:05;20.20;99.90
28171;DHT22;15458;53.346;-1.688;2022-09-03T09:59:32;20.30;99.90
28171;DHT22;15458;53.346;-1.688;2022-09-03T10:02:12;20.40;99.90
28171;DHT22;15458;53.346;-1.688;2022-09-03T10:04:39;20.50;99.90
28171;DHT22;15458;53.346;-1.688;2022-09-03T10:09:44;20.60;99.90
28171;DHT22;15458;53.346;-1.688;2022-09-03T10:12:19;20.60;99.90
28171;DHT22;15458;53.346;-1.688;2022-09-03T10:15:10;20.50;99.90
28171;DHT22;15458;53.346;-1.688;2022-09-03T10:20:48;20.50;99.90
28171;DHT22;15458;53.346;-1.688;2022-09-03T10:23:26;20.50;99.90
28171;DHT22;15458;53.346;-1.688;2022-09-03T10:26:20;20.50;99.90
28171;DHT22;15458;53.346;-1.688;2022-09-03T10:28:57;20.50;99.90
28171;DHT22;15458;53.346;-1.688;2022-09-03T10:34:11;20.50;99.90
28171;DHT22;15458;53.346;-1.688;2022-09-03T10:36:55;20.60;99.90
28171;DHT22;15458;53.346;-1.688;2022-09-03T10:39:37;20.60;99.90
28171;DHT22;15458;53.346;-1.688;2022-09-03T10:50:43;20.90;99.90
28171;DHT22;15458;53.346;-1.688;2022-09-03T11:02:28;22.00;99.90
28171;DHT22;15458;53.346;-1.688;2022-09-03T11:05:04;22.30;99.90
28171;DHT22;15458;53.346;-1.688;2022-09-03T11:07:39;22.30;99.90
28171;DHT22;15458;53.346;-1.688;2022-09-03T11:13:16;22.30;99.90
28171;DHT22;15458;53.346;-1.688;2022-09-03T11:21:12;22.40;99.90
28171;DHT22;15458;53.346;-1.688;2022-09-03T11:23:44;22.50;99.90
28171;DHT22;15458;53.346;-1.688;2022-09-03T11:26:14;22.60;98.80
28171;DHT22;15458;53.346;-1.688;2022-09-03T11:31:44;22.70;97.30
28171;DHT22;15458;53.346;-1.688;2022-09-03T11:34:25;22.70;96.20
28171;DHT22;15458;53.346;-1.688;2022-09-03T11:36:52;22.70;96.00
28171;DHT22;15458;53.346;-1.688;2022-09-03T11:42:00;22.70;94.70
28171;DHT22;15458;53.346;-1.688;2022-09-03T11:44:50;22.70;94.50
28171;DHT22;15458;53.346;-1.688;2022-09-03T11:47:20;22.60;94.00
28171;DHT22;15458;53.346;-1.688;2022-09-03T11:49:47;22.50;93.60
28171;DHT22;15458;53.346;-1.688;2022-09-03T11:52:28;22.40;93.70
28171;DHT22;15458;53.346;-1.688;2022-09-03T11:54:54;22.50;93.90
28171;DHT22;15458;53.346;-1.688;2022-09-03T11:57:31;22.50;93.90
28171;DHT22;15458;53.346;-1.688;2022-09-03T12:00:10;22.50;93.90
28171;DHT22;15458;53.346;-1.688;2022-09-03T12:02:43;22.60;93.60
28171;DHT22;15458;53.346;-1.688;2022-09-03T12:05:41;22.60;93.30
28171;DHT22;15458;53.346;-1.688;2022-09-03T12:08:18;22.60;92.90
28171;DHT22;15458;53.346;-1.688;2022-09-03T12:10:57;22.70;92.90
28171;DHT22;15458;53.346;-1.688;2022-09-03T12:13:35;22.70;92.70
28171;DHT22;15458;53.346;-1.688;2022-09-03T12:21:56;22.80;91.70
28171;DHT22;15458;53.346;-1.688;2022-09-03T12:24:25;22.90;91.60
28171;DHT22;15458;53.346;-1.688;2022-09-03T12:26:57;23.00;91.30
28171;DHT22;15458;53.346;-1.688;2022-09-03T12:29:26;22.90;90.70
28171;DHT22;15458;53.346;-1.688;2022-09-03T12:31:52;23.00;90.90
28171;DHT22;15458;53.346;-1.688;2022-09-03T12:34:22;23.00;90.80
28171;DHT22;15458;53.346;-1.688;2022-09-03T12:36:52;23.10;90.60
28171;DHT22;15458;53.346;-1.688;2022-09-03T12:39:24;23.10;90.70
28171;DHT22;15458;53.346;-1.688;2022-09-03T12:42:05;23.10;90.60
28171;DHT22;15458;53.346;-1.688;2022-09-03T12:49:46;23.20;90.20
28171;DHT22;15458;53.346;-1.688;2022-09-03T12:52:40;23.20;90.10
28171;DHT22;15458;53.346;-1.688;2022-09-03T12:55:37;23.40;90.20
28171;DHT22;15458;53.346;-1.688;2022-09-03T13:00:36;23.70;89.60
28171;DHT22;15458;53.346;-1.688;2022-09-03T13:03:06;23.90;88.60
28171;DHT22;15458;53.346;-1.688;2022-09-03T13:06:13;24.00;87.20
28171;DHT22;15458;53.346;-1.688;2022-09-03T13:08:52;24.10;86.40
28171;DHT22;15458;53.346;-1.688;2022-09-03T13:11:20;24.00;85.70
28171;DHT22;15458;53.346;-1.688;2022-09-03T13:14:01;23.90;85.70
28171;DHT22;15458;53.346;-1.688;2022-09-03T13:22:30;23.70;85.20
28171;DHT22;15458;53.346;-1.688;2022-09-03T13:30:37;23.50;85.70
28171;DHT22;15458;53.346;-1.688;2022-09-03T13:38:53;23.40;85.50
28171;DHT22;15458;53.346;-1.688;2022-09-03T13:41:37;23.40;85.90
28171;DHT22;15458;53.346;-1.688;2022-09-03T13:44:14;23.40;85.90
28171;DHT22;15458;53.346;-1.688;2022-09-03T13:46:49;23.40;86.00
28171;DHT22;15458;53.346;-1.688;2022-09-03T13:49:23;23.30;86.60
28171;DHT22;15458;53.346;-1.688;2022-09-03T13:52:26;23.20;86.00
28171;DHT22;15458;53.346;-1.688;2022-09-03T13:54:59;23.20;86.00
28171;DHT22;15458;53.346;-1.688;2022-09-03T13:57:44;23.10;85.90
28171;DHT22;15458;53.346;-1.688;2022-09-03T14:00:13;23.10;85.90
28171;DHT22;15458;53.346;-1.688;2022-09-03T14:05:46;22.90;86.10
28171;DHT22;15458;53.346;-1.688;2022-09-03T14:11:34;22.80;86.60
28171;DHT22;15458;53.346;-1.688;2022-09-03T14:14:22;22.80;86.50
28171;DHT22;15458;53.346;-1.688;2022-09-03T14:16:58;22.80;86.40
28171;DHT22;15458;53.346;-1.688;2022-09-03T14:19:55;22.80;86.00
28171;DHT22;15458;53.346;-1.688;2022-09-03T14:22:28;22.80;85.20
28171;DHT22;15458;53.346;-1.688;2022-09-03T14:25:15;22.80;84.80
28171;DHT22;15458;53.346;-1.688;2022-09-03T14:27:42;22.70;84.10
28171;DHT22;15458;53.346;-1.688;2022-09-03T14:30:32;22.70;84.20
28171;DHT22;15458;53.346;-1.688;2022-09-03T14:36:01;22.60;84.30
28171;DHT22;15458;53.346;-1.688;2022-09-03T14:38:50;22.50;84.50
28171;DHT22;15458;53.346;-1.688;2022-09-03T14:44:21;22.50;84.80
28171;DHT22;15458;53.346;-1.688;2022-09-03T14:57:47;22.50;84.70
28171;DHT22;15458;53.346;-1.688;2022-09-03T15:00:20;22.60;84.60
28171;DHT22;15458;53.346;-1.688;2022-09-03T15:11:23;22.70;83.60
28171;DHT22;15458;53.346;-1.688;2022-09-03T15:13:54;22.60;83.70
28171;DHT22;15458;53.346;-1.688;2022-09-03T15:16:46;22.60;83.80
28171;DHT22;15458;53.346;-1.688;2022-09-03T15:22:21;22.50;83.80
28171;DHT22;15458;53.346;-1.688;2022-09-03T15:33:49;22.50;84.30
28171;DHT22;15458;53.346;-1.688;2022-09-03T15:36:18;22.50;84.20
28171;DHT22;15458;53.346;-1.688;2022-09-03T15:39:12;22.50;84.20
28171;DHT22;15458;53.346;-1.688;2022-09-03T15:41:52;22.40;84.40
28171;DHT22;15458;53.346;-1.688;2022-09-03T15:44:22;22.40;84.40
28171;DHT22;15458;53.346;-1.688;2022-09-03T15:46:58;22.40;84.60
28171;DHT22;15458;53.346;-1.688;2022-09-03T15:49:43;22.40;84.90
28171;DHT22;15458;53.346;-1.688;2022-09-03T15:54:58;22.20;85.10
28171;DHT22;15458;53.346;-1.688;2022-09-03T16:00:11;22.20;85.70
28171;DHT22;15458;53.346;-1.688;2022-09-03T16:02:51;22.20;85.70
28171;DHT22;15458;53.346;-1.688;2022-09-03T16:05:42;22.10;85.80
28171;DHT22;15458;53.346;-1.688;2022-09-03T16:08:37;22.10;86.10
28171;DHT22;15458;53.346;-1.688;2022-09-03T16:11:05;22.00;86.50
28171;DHT22;15458;53.346;-1.688;2022-09-03T16:13:44;22.00;86.70
28171;DHT22;15458;53.346;-1.688;2022-09-03T16:22:27;21.90;87.50
28171;DHT22;15458;53.346;-1.688;2022-09-03T16:25:03;21.80;87.90
28171;DHT22;15458;53.346;-1.688;2022-09-03T16:27:38;21.80;88.30
28171;DHT22;15458;53.346;-1.688;2022-09-03T16:30:13;21.80;88.60
28171;DHT22;15458;53.346;-1.688;2022-09-03T16:38:21;21.60;89.40
28171;DHT22;15458;53.346;-1.688;2022-09-03T16:40:55;21.50;89.80
28171;DHT22;15458;53.346;-1.688;2022-09-03T16:46:32;21.50;90.50
28171;DHT22;15458;53.346;-1.688;2022-09-03T16:51:55;21.30;91.30
28171;DHT22;15458;53.346;-1.688;2022-09-03T16:57:37;21.30;92.20
28171;DHT22;15458;53.346;-1.688;2022-09-03T17:00:11;21.30;92.40
28171;DHT22;15458;53.346;-1.688;2022-09-03T17:10:45;21.20;92.80
28171;DHT22;15458;53.346;-1.688;2022-09-03T17:19:06;21.20;93.20
28171;DHT22;15458;53.346;-1.688;2022-09-03T17:24:42;21.10;93.60
28171;DHT22;15458;53.346;-1.688;2022-09-03T17:41:39;21.10;94.40
28171;DHT22;15458;53.346;-1.688;2022-09-03T17:49:59;21.10;94.80
28171;DHT22;15458;53.346;-1.688;2022-09-03T17:52:52;21.00;94.90
28171;DHT22;15458;53.346;-1.688;2022-09-03T17:55:38;21.00;95.10
28171;DHT22;15458;53.346;-1.688;2022-09-03T17:58:13;21.00;95.20
28171;DHT22;15458;53.346;-1.688;2022-09-03T18:01:10;20.90;95.20
28171;DHT22;15458;53.346;-1.688;2022-09-03T18:09:23;20.70;95.30
28171;DHT22;15458;53.346;-1.688;2022-09-03T18:14:37;20.70;95.50
28171;DHT22;15458;53.346;-1.688;2022-09-03T18:17:34;20.60;95.60
28171;DHT22;15458;53.346;-1.688;2022-09-03T18:20:11;20.60;95.80
28171;DHT22;15458;53.346;-1.688;2022-09-03T18:23:10;20.60;95.90
28171;DHT22;15458;53.346;-1.688;2022-09-03T18:26:15;20.60;96.00
28171;DHT22;15458;53.346;-1.688;2022-09-03T18:29:10;20.60;96.10
28171;DHT22;15458;53.346;-1.688;2022-09-03T18:31:55;20.60;96.20
28171;DHT22;15458;53.346;-1.688;2022-09-03T18:34:40;20.50;96.30
28171;DHT22;15458;53.346;-1.688;2022-09-03T18:37:25;20.50;96.40
28171;DHT22;15458;53.346;-1.688;2022-09-03T18:40:24;20.50;96.60
28171;DHT22;15458;53.346;-1.688;2022-09-03T18:46:06;20.40;96.90
28171;DHT22;15458;53.346;-1.688;2022-09-03T18:49:01;20.40;97.10
28171;DHT22;15458;53.346;-1.688;2022-09-03T19:01:37;20.20;97.70
28171;DHT22;15458;53.346;-1.688;2022-09-03T19:13:35;20.10;98.50
28171;DHT22;15458;53.346;-1.688;2022-09-03T19:16:57;20.10;98.60
28171;DHT22;15458;53.346;-1.688;2022-09-03T19:20:12;20.00;98.70
28171;DHT22;15458;53.346;-1.688;2022-09-03T19:22:58;20.00;98.80
28171;DHT22;15458;53.346;-1.688;2022-09-03T19:25:43;19.90;99.00
28171;DHT22;15458;53.346;-1.688;2022-09-03T19:28:31;19.90;99.20
28171;DHT22;15458;53.346;-1.688;2022-09-03T19:31:42;19.90;99.40
28171;DHT22;15458;53.346;-1.688;2022-09-03T19:40:51;19.70;99.90
28171;DHT22;15458;53.346;-1.688;2022-09-03T19:46:58;19.70;99.90
28171;DHT22;15458;53.346;-1.688;2022-09-03T19:50:08;19.70;99.90
28171;DHT22;15458;53.346;-1.688;2022-09-03T19:53:04;19.70;99.90
28171;DHT22;15458;53.346;-1.688;2022-09-03T19:55:58;19.60;99.90
28171;DHT22;15458;53.346;-1.688;2022-09-03T19:59:02;19.60;99.90
28171;DHT22;15458;53.346;-1.688;2022-09-03T20:01:47;19.50;99.90
28171;DHT22;15458;53.346;-1.688;2022-09-03T20:04:36;19.50;99.90
28171;DHT22;15458;53.346;-1.688;2022-09-03T20:07:22;19.50;99.90
28171;DHT22;15458;53.346;-1.688;2022-09-03T20:10:10;19.50;99.90
28171;DHT22;15458;53.346;-1.688;2022-09-03T20:13:09;19.50;99.90
28171;DHT22;15458;53.346;-1.688;2022-09-03T20:21:49;19.50;99.90
28171;DHT22;15458;53.346;-1.688;2022-09-03T20:24:44;19.50;99.90
28171;DHT22;15458;53.346;-1.688;2022-09-03T20:37:39;19.40;99.90
28171;DHT22;15458;53.346;-1.688;2022-09-03T20:40:19;19.40;99.90
28171;DHT22;15458;53.346;-1.688;2022-09-03T21:02:16;19.10;99.90
28171;DHT22;15458;53.346;-1.688;2022-09-03T21:15:57;19.00;99.90
28171;DHT22;15458;53.346;-1.688;2022-09-03T21:21:15;18.90;99.90
28171;DHT22;15458;53.346;-1.688;2022-09-03T21:26:40;18.80;99.90
28171;DHT22;15458;53.346;-1.688;2022-09-03T21:29:12;18.90;99.90
28171;DHT22;15458;53.346;-1.688;2022-09-03T21:32:01;18.80;99.90
28171;DHT22;15458;53.346;-1.688;2022-09-03T21:34:31;18.80;99.90
28171;DHT22;15458;53.346;-1.688;2022-09-03T21:37:03;18.80;99.90
28171;DHT22;15458;53.346;-1.688;2022-09-03T21:42:25;18.70;99.90
28171;DHT22;15458;53.346;-1.688;2022-09-03T21:45:26;18.70;99.90